Stephen L. — WDE7070 — position and weather

sailwx.info

Track history (hours):
 
Tides and Currents Weather Stations Pressure Air Temp Water Temp Dewpoint Dewpoint Depression Visibility Wind Speed Wind Dir Waves Ship Positions

Stephen L.

Owner: TRIPLE S MARINE, LLC, MORGAN CITY, LA. More information available from US FCC via Universal Licensing System and Coast Guard Vessel Documentation Center.

Last reported at 2015-Aug-29 14:33 UTC. Time now 2015-Sep-02 10:33 UTC.
Position N 29°32' W 090°47'.

Length 20 m.

Type: Ship. MMSI: 367388580.

Date/timePositionNaut miles runAvg speedWind from/ knotsBaromVisibWave heightAir tempDewpointWater temp
2015-Aug-29 14:33N 29°32' W 090°47'4 4.2
2015-Aug-29 13:33N 29°34' W 090°42'1 1.1
2015-Aug-29 12:33N 29°34' W 090°43'  
2015-Aug-27 05:33N 29°32' W 090°50'6 6.2
2015-Aug-27 04:33N 29°34' W 090°43'4 4.1
2015-Aug-27 03:32N 29°35' W 090°39'1 0.1
2015-Aug-26 15:33N 29°35' W 090°37'5 4.7
2015-Aug-26 14:33N 29°35' W 090°43'3 3.0
2015-Aug-26 13:33N 29°33' W 090°45'0 0.3
2015-Aug-26 12:33N 29°33' W 090°45'0 0.0
2015-Aug-26 11:33N 29°33' W 090°45'61 5.0
2015-Aug-25 23:30N 29°55' W 091°50'0 0.0
2015-Aug-25 22:21N 29°55' W 091°50'1 0.8
2015-Aug-25 21:33N 29°56' W 091°50'58 3.4
2015-Aug-25 04:33N 29°32' W 090°50'4 3.9
2015-Aug-25 03:33N 29°33' W 090°45'2 2.5
2015-Aug-25 02:33N 29°34' W 090°43'1 0.7
2015-Aug-25 01:33N 29°34' W 090°43'3 3.2
2015-Aug-25 00:33N 29°30' W 090°43'  
2015-Aug-20 13:06N 29°28' W 090°43'3 6.1
2015-Aug-20 12:33N 29°31' W 090°42'2 1.9
2015-Aug-20 11:33N 29°33' W 090°41'1 1.0
2015-Aug-20 10:33N 29°33' W 090°42'2 2.0
2015-Aug-20 09:33N 29°34' W 090°44'4 3.5
2015-Aug-20 08:33N 29°32' W 090°48'  
Track history (hours):
 
Tides and Currents Weather Stations Pressure Air Temp Water Temp Dewpoint Dewpoint Depression Visibility Wind Speed Wind Dir Waves Ship Positions

Stephen L.

Owner: TRIPLE S MARINE, LLC, MORGAN CITY, LA. More information available from US FCC via Universal Licensing System and Coast Guard Vessel Documentation Center.

Last reported at 2015-Aug-29 14:33 UTC. Time now 2015-Sep-02 10:33 UTC.
Position N 29°32' W 090°47'.

Length 20 m.

Type: Ship. MMSI: 367388580.

Date/timePositionNaut miles runAvg speedWind from/ knotsBaromVisibWave heightAir tempDewpointWater temp
2015-Aug-29 14:33N 29°32' W 090°47'4 4.2
2015-Aug-29 13:33N 29°34' W 090°42'1 1.1
2015-Aug-29 12:33N 29°34' W 090°43'  
2015-Aug-27 05:33N 29°32' W 090°50'6 6.2
2015-Aug-27 04:33N 29°34' W 090°43'4 4.1
2015-Aug-27 03:32N 29°35' W 090°39'1 0.1
2015-Aug-26 15:33N 29°35' W 090°37'5 4.7
2015-Aug-26 14:33N 29°35' W 090°43'3 3.0
2015-Aug-26 13:33N 29°33' W 090°45'0 0.3
2015-Aug-26 12:33N 29°33' W 090°45'0 0.0
2015-Aug-26 11:33N 29°33' W 090°45'61 5.0
2015-Aug-25 23:30N 29°55' W 091°50'0 0.0
2015-Aug-25 22:21N 29°55' W 091°50'1 0.8
2015-Aug-25 21:33N 29°56' W 091°50'58 3.4
2015-Aug-25 04:33N 29°32' W 090°50'4 3.9
2015-Aug-25 03:33N 29°33' W 090°45'2 2.5
2015-Aug-25 02:33N 29°34' W 090°43'1 0.7
2015-Aug-25 01:33N 29°34' W 090°43'3 3.2
2015-Aug-25 00:33N 29°30' W 090°43'  
2015-Aug-20 13:06N 29°28' W 090°43'3 6.1
2015-Aug-20 12:33N 29°31' W 090°42'2 1.9
2015-Aug-20 11:33N 29°33' W 090°41'1 1.0
2015-Aug-20 10:33N 29°33' W 090°42'2 2.0
2015-Aug-20 09:33N 29°34' W 090°44'4 3.5
2015-Aug-20 08:33N 29°32' W 090°48'  

Dump ship's entire track history